Princeton, MN

1:21 AM CST on February 23, 2017 (GMT -0600)
Princeton Municipal

Weather History for KPNM - July, 2014

Change the Weather History Date:

Tuesday, July 29, 2014

  Actual Average Record
Temperature  
Mean Temperature 68 °F -  
Max Temperature 80 °F 79 °F 96 °F (2006)
Min Temperature 55 °F 56 °F 6 °F (1997)
Cooling Degree Days 2    
Growing Degree Days 18 (Base 50)    
Moisture  
Dew Point 56 °F    
Average Humidity 68    
Maximum Humidity 94    
Minimum Humidity 42    
Precipitation  
Precipitation 0.00 in - - ()
Sea Level Pressure  
Sea Level Pressure 30.10 in    
Wind  
Wind Speed 5 mph (WNW)    
Max Wind Speed 17 mph    
Max Gust Speed 18 mph    
Visibility 10 miles    
Events      
Averages and records for this station are not official NWS values.
T = Trace of Precipitation, MM = Missing Value Source: NWS Daily Summary

Daily Weather History Graph

Daily Weather History Graph

Search for Another Location

Airport or City:

Trip Planner

Search our weather history database for the weather conditions in past years. The results will help you decide how hot, cold, wet, or windy it might be!

Date:

Astronomy

Jul. 29, 2014 Rise Set
Actual Time 5:54 AM CDT 8:46 PM CDT
Civil Twilight 5:20 AM CDT 9:20 PM CDT
Nautical Twilight 4:36 AM CDT 10:04 PM CDT
Astronomical Twilight 3:43 AM CDT 10:56 PM CDT
Moon 8:42 AM CDT (7/29) 9:47 PM CDT (7/29)
Length of Visible Light 16h 00m
Length of Day
14h 51m
Waxing Crescent, 7% of the Moon is Illuminated
Jul 29
Waxing Crescent
Aug 3
First Quarter
Aug 10
Full
Aug 17
Last Quarter
Aug 25
New

Hourly Weather History & Observations

Time (CDT) Temp. Heat Index Dew Point Humidity Pressure Visibility Wind Dir Wind Speed Gust Speed Precip Events Conditions
12:14 AM 60.8 °F - 55.4 °F 82% 30.15 in 10.0 mi WNW 4.6 mph - N/A   Clear
12:34 AM 60.8 °F - 55.4 °F 82% 30.15 in 10.0 mi WNW 3.5 mph - N/A   Clear
12:54 AM 59.0 °F - 55.4 °F 88% 30.15 in 10.0 mi WNW 4.6 mph - N/A   Clear
1:14 AM 59.0 °F - 55.4 °F 88% 30.15 in 10.0 mi WNW 4.6 mph - N/A   Clear
1:34 AM 59.0 °F - 55.4 °F 88% 30.15 in 10.0 mi WNW 4.6 mph - N/A   Clear
1:54 AM 57.2 °F - 55.4 °F 94% 30.14 in 10.0 mi WNW 4.6 mph - N/A   Clear
2:14 AM 57.2 °F - 55.4 °F 94% 30.14 in 10.0 mi West 3.5 mph - N/A   Clear
2:33 AM 57.2 °F - 55.4 °F 94% 30.14 in 10.0 mi Calm Calm - N/A   Clear
2:54 AM 57.2 °F - 53.6 °F 88% 30.14 in 10.0 mi West 4.6 mph - N/A   Clear
3:14 AM 57.2 °F - 53.6 °F 88% 30.13 in 10.0 mi West 3.5 mph - N/A   Clear
3:34 AM 57.2 °F - 53.6 °F 88% 30.13 in 10.0 mi West 3.5 mph - N/A   Clear
3:54 AM 57.2 °F - 53.6 °F 88% 30.13 in 10.0 mi Calm Calm - N/A   Clear
4:14 AM 57.2 °F - 53.6 °F 88% 30.13 in 10.0 mi West 3.5 mph - N/A   Clear
4:34 AM 57.2 °F - 53.6 °F 88% 30.13 in 10.0 mi Calm Calm - N/A   Clear
4:54 AM 55.4 °F - 53.6 °F 94% 30.14 in 10.0 mi Calm Calm - N/A   Clear
5:14 AM 55.4 °F - 53.6 °F 94% 30.13 in 10.0 mi Calm Calm - N/A   Scattered Clouds
5:34 AM 55.4 °F - 53.6 °F 94% 30.13 in 10.0 mi Calm Calm - N/A   Unknown
5:54 AM 57.2 °F - 53.6 °F 88% 30.13 in 10.0 mi Calm Calm - N/A   Unknown
6:14 AM 57.2 °F - 53.6 °F 88% 30.13 in 10.0 mi Calm Calm - N/A   Unknown
6:34 AM 57.2 °F - 53.6 °F 88% 30.13 in 10.0 mi Calm Calm - N/A   Unknown
6:54 AM 57.2 °F - 55.4 °F 94% 30.14 in 10.0 mi Calm Calm - N/A   Unknown
7:14 AM 59.0 °F - 55.4 °F 88% 30.14 in 10.0 mi West 3.5 mph - N/A   Unknown
7:34 AM 60.8 °F - 55.4 °F 82% 30.14 in 10.0 mi WNW 4.6 mph - N/A   Unknown
7:54 AM 62.6 °F - 57.2 °F 82% 30.14 in 10.0 mi West 5.8 mph - N/A   Unknown
8:14 AM 64.4 °F - 57.2 °F 77% 30.14 in 10.0 mi West 5.8 mph - N/A   Unknown
8:34 AM 66.2 °F - 57.2 °F 73% 30.14 in 10.0 mi West 6.9 mph - N/A   Clear
9:14 AM 68.0 °F - 57.2 °F 68% 30.14 in 10.0 mi WNW 5.8 mph - N/A   Clear
9:54 AM 71.6 °F - 59.0 °F 64% 30.14 in 10.0 mi West 5.8 mph - N/A   Clear
10:14 AM 73.4 °F - 60.8 °F 65% 30.13 in 10.0 mi West 8.1 mph - N/A   Clear
10:34 AM 73.4 °F - 59.0 °F 61% 30.13 in 10.0 mi West 5.8 mph - N/A   Clear
10:54 AM 75.2 °F - 57.2 °F 53% 30.13 in 10.0 mi West 6.9 mph - N/A   Clear
11:14 AM 75.2 °F - 57.2 °F 53% 30.13 in 10.0 mi West 8.1 mph - N/A   Clear
11:34 AM 77.0 °F - 57.2 °F 50% 30.12 in 10.0 mi NW 8.1 mph - N/A   Clear
11:54 AM 78.8 °F - 57.2 °F 47% 30.12 in 10.0 mi NW 4.6 mph - N/A   Clear
12:14 PM 77.0 °F - 57.2 °F 50% 30.12 in 10.0 mi NW 10.4 mph - N/A   Scattered Clouds
12:34 PM 78.8 °F - 57.2 °F 47% 30.12 in 10.0 mi NW 10.4 mph 17.3 mph N/A   Scattered Clouds
12:54 PM 77.0 °F - 57.2 °F 50% 30.11 in 10.0 mi NW 9.2 mph - N/A   Scattered Clouds
1:14 PM 78.8 °F - 57.2 °F 47% 30.11 in 10.0 mi WNW 10.4 mph - N/A   Scattered Clouds
1:35 PM 78.8 °F - 53.6 °F 42% 30.10 in 10.0 mi WNW 6.9 mph 16.1 mph N/A   Scattered Clouds
1:54 PM 78.8 °F - 55.4 °F 44% 30.10 in 10.0 mi NW 10.4 mph - N/A   Scattered Clouds
2:14 PM 80.6 °F 80.8 °F 57.2 °F 45% 30.09 in 10.0 mi West 10.4 mph 16.1 mph N/A   Scattered Clouds
2:34 PM 78.8 °F - 55.4 °F 44% 30.09 in 10.0 mi West 9.2 mph - N/A   Scattered Clouds
2:54 PM 78.8 °F - 55.4 °F 44% 30.09 in 10.0 mi West 12.7 mph 16.1 mph N/A   Mostly Cloudy
3:14 PM 78.8 °F - 55.4 °F 44% 30.08 in 10.0 mi WNW 10.4 mph - N/A   Mostly Cloudy
3:34 PM 80.6 °F 80.5 °F 55.4 °F 42% 30.08 in 10.0 mi NW 9.2 mph - N/A   Scattered Clouds
3:54 PM 80.6 °F 80.8 °F 57.2 °F 45% 30.07 in 10.0 mi NW 9.2 mph 17.3 mph N/A   Scattered Clouds
4:14 PM 77.0 °F - 55.4 °F 47% 30.07 in 10.0 mi NW 8.1 mph - N/A   Mostly Cloudy
4:34 PM 78.8 °F - 57.2 °F 47% 30.07 in 10.0 mi NW 10.4 mph - N/A   Scattered Clouds
5:14 PM 80.6 °F 80.5 °F 55.4 °F 42% 30.06 in 10.0 mi West 10.4 mph - N/A   Scattered Clouds
5:34 PM 78.8 °F - 55.4 °F 44% 30.05 in 10.0 mi WNW 12.7 mph 18.4 mph N/A   Scattered Clouds
5:54 PM 77.0 °F - 55.4 °F 47% 30.05 in 10.0 mi WNW 13.8 mph 18.4 mph N/A   Scattered Clouds
6:14 PM 78.8 °F - 55.4 °F 44% 30.05 in 10.0 mi WNW 17.3 mph - N/A   Clear
6:34 PM 77.0 °F - 55.4 °F 47% 30.05 in 10.0 mi WNW 10.4 mph 18.4 mph N/A   Scattered Clouds
6:54 PM 75.2 °F - 55.4 °F 50% 30.05 in 10.0 mi WNW 11.5 mph 16.1 mph N/A   Scattered Clouds
7:14 PM 75.2 °F - 55.4 °F 50% 30.05 in 10.0 mi WNW 8.1 mph - N/A   Clear
7:34 PM 75.2 °F - 55.4 °F 50% 30.05 in 10.0 mi WNW 6.9 mph - N/A   Clear
7:54 PM 73.4 °F - 55.4 °F 53% 30.05 in 10.0 mi WNW 6.9 mph - N/A   Clear
8:14 PM 71.6 °F - 55.4 °F 57% 30.05 in 10.0 mi WNW 4.6 mph - N/A   Clear
8:34 PM 69.8 °F - 55.4 °F 60% 30.05 in 10.0 mi West 4.6 mph - N/A   Clear
8:54 PM 66.2 °F - 55.4 °F 68% 30.05 in 10.0 mi WNW 3.5 mph - N/A   Clear
9:14 PM 66.2 °F - 55.4 °F 68% 30.06 in 10.0 mi Calm Calm - N/A   Clear
9:34 PM 64.4 °F - 55.4 °F 73% 30.07 in 10.0 mi Calm Calm - N/A   Clear
9:54 PM 64.4 °F - 55.4 °F 73% 30.07 in 10.0 mi WNW 3.5 mph - N/A   Clear
10:14 PM 62.6 °F - 55.4 °F 77% 30.07 in 10.0 mi Calm Calm - N/A   Clear
10:34 PM 60.8 °F - 55.4 °F 82% 30.07 in 10.0 mi Calm Calm - N/A   Clear
10:54 PM 59.0 °F - 55.4 °F 88% 30.07 in 10.0 mi Calm Calm - N/A   Clear
11:14 PM 59.0 °F - 55.4 °F 88% 30.07 in 10.0 mi Calm Calm - N/A   Clear
11:34 PM 59.0 °F - 55.4 °F 88% 30.08 in 10.0 mi Calm Calm - N/A   Clear
11:54 PM 57.2 °F - 53.6 °F 88% 30.08 in 10.0 mi Calm Calm - N/A   Clear